Kettle Falls, WA

2:34 AM PDT on October 25, 2014 (GMT -0700)
IBCGRAND2 | Change Station
CLOSE
Current Station
Personal Weather Station
Location: Grand Forks, BC
Elevation: 1686 ft
Nearby Weather Stations

Elev 1686 ft 49.03 °N, 118.45 °W | Updated 4 minutes ago

Overcast
Overcast
44.1 °F
Feels Like 44 °F
N
0.0
Wind Variable Wind from East
Gusts 0.0 mph

Today
High -- | Low -- °F
--% Chance of Precip.
Yesterday
High -- | Low -- °F
Precip. -- in
7:29 AM 5:43 PM
New Moon, 2% visible
Pressure 29.93 in
Visibility 10.0 miles
Clouds Mostly Cloudy 3700 ft
Overcast 4800 ft
Windchill 44 °F
Dew Point 41 °F
Humidity 89%
Rainfall 0.00 in
Snow Depth Not available.
UV 0 out of 12
Pollen 1.20 out of 12
Air Quality Not available.
Flu Activity Sporadic
METAR KOMK 250853Z AUTO 34007KT 10SM BKN037 OVC048 07/06 A2992 RMK AO2 RAE42 SLP135 P0001 60010 T00720061 58023

More Conditions Fewer Conditions

Pressure 29.93 in
Visibility 10.0 miles
Clouds Mostly Cloudy 3700 ft
Overcast 4800 ft
Windchill 44 °F
Dew Point 41 °F
Humidity 89%
Rainfall 0.00 in
Snow Depth Not available.
UV 0 out of 12
Pollen 1.20 out of 12
Air Quality Not available.
Flu Activity Sporadic
METAR KOMK 250853Z AUTO 34007KT 10SM BKN037 OVC048 07/06 A2992 RMK AO2 RAE42 SLP135 P0001 60010 T00720061 58023

More Conditions Fewer Conditions

10-Day Weather Forecast

Almanac

Astronomy

Oct. 25, 2014 Rise Set
Actual Time 7:29 AM PDT 5:43 PM PDT
Civil Twilight 6:56 AM PDT 6:16 PM PDT
Nautical Twilight 6:19 AM PDT 6:53 PM PDT
Astronomical Twilight 5:42 AM PDT 7:29 PM PDT
Moon 9:19 AM PDT 7:02 PM PDT
Length of Visible Light 11h 19m
Length of Day
10h 14m
Tomorrow will be 3m 22s shorter.
New Moon, 2% of the Moon is Illuminated
Today
New Moon
Oct 30
First Quarter
Nov 6
Full
Nov 14
Last Quarter
Nov 22
New

Today's Extremes

State Highs State Lows

Community

WunderPhotos

Upload Photos

1,764,796 photos uploaded!

Nearby

Snow Depth

Station Depth Elevation
Bunchgrass Meadow 0 in 5000 ft
Moses Mountain 0 in 5300 ft
Quartz Peak 2 in 4700 ft
Harts Pass 5 in 6500 ft
Rainy Pass 0 in 4780 ft

Earthquake Activity

City Distance Mag. Time & Date
No recent earthquake activity has been reported nearby.
Minimum magnitude displayed is 2.5.

Coastal Water Temperatures

Place Temperature
No Stations Reporting

Nearby Weather Stations